CTH8 weather

Tally-Ho Field
Cookstown, Ontario, Canada

Public forecast

Using degrees Celsius for public forecast. Weather courtesy of forecast.io.

Closest aviation weather report (METAR) to Tally-Ho Field

Closest report is CFB Borden, 6.8 nm (12.5 km) WNW. Retrieved 2019/10/16 22:00 UTC (56 minutes ago):

CYBN 162200Z AUTO 22004KT 9SM BKN029 BKN042 OVC052 09/07 A2947 RMK SLP982

Closest aviation forecast (TAF) to Tally-Ho Field

Closest forecast is CFB Borden, 6.8 nm (12.5 km) WNW. Retrieved 2019/10/16 18:33 UTC (4 hours ago):

TAF TAF CYBN 161730Z 1618/1706 19012KT P6SM SCT015 OVC030 TEMPO 1618/1701 5SM -RA -DZ BR BKN015 OVC025 FM170100 VRB03KT 5SM BR FEW010 BKN020 TEMPO 1701/1706 2SM BR BKN010 OVC020 RMK FCST BASED ON AUTO OBS NXT FCST BY 170000Z